createdAt,value
2016-08-14T00:00:42.599Z,1036.54
2016-08-14T00:01:42.595Z,1036.61
2016-08-14T00:02:42.595Z,1036.62
2016-08-14T00:03:42.591Z,1036.66
2016-08-14T00:04:42.590Z,1036.67
2016-08-14T00:05:43.886Z,1036.69
2016-08-14T00:06:42.586Z,1036.73
2016-08-14T00:07:42.984Z,1036.7
2016-08-14T00:08:42.691Z,1036.71
2016-08-14T00:09:42.579Z,1036.69
2016-08-14T00:10:42.578Z,1036.69
2016-08-14T00:11:42.576Z,1036.72
2016-08-14T00:12:42.580Z,1036.77
2016-08-14T00:13:42.575Z,1036.73
2016-08-14T00:14:42.580Z,1036.66
2016-08-14T00:15:43.615Z,1036.68
2016-08-14T00:16:42.569Z,1036.68
2016-08-14T00:17:42.566Z,1036.65
2016-08-14T00:18:43.573Z,1036.61
2016-08-14T00:19:42.561Z,1036.56
2016-08-14T00:20:42.559Z,1036.59
2016-08-14T00:21:42.560Z,1036.52
2016-08-14T00:22:42.556Z,1036.48
2016-08-14T00:23:42.555Z,1036.44
2016-08-14T00:24:42.552Z,1036.42
2016-08-14T00:25:42.554Z,1036.41
2016-08-14T00:26:42.549Z,1036.42
2016-08-14T00:27:42.547Z,1036.42
2016-08-14T00:28:42.548Z,1036.45
2016-08-14T00:29:42.544Z,1036.45
2016-08-14T00:30:42.541Z,1036.46
2016-08-14T00:31:42.539Z,1036.49
2016-08-14T00:32:42.538Z,1036.51
2016-08-14T00:33:42.537Z,1036.52
2016-08-14T00:34:42.536Z,1036.53
2016-08-14T00:35:42.533Z,1036.47
2016-08-14T00:36:42.531Z,1036.5
2016-08-14T00:37:42.527Z,1036.52
2016-08-14T00:38:42.526Z,1036.58
2016-08-14T00:39:42.528Z,1036.58
2016-08-14T00:40:42.523Z,1036.59
2016-08-14T00:41:42.521Z,1036.58
2016-08-14T00:42:42.522Z,1036.62
2016-08-14T00:43:42.517Z,1036.51
2016-08-14T00:45:42.515Z,1036.44
2016-08-14T00:48:42.509Z,1036.46
2016-08-14T00:49:42.758Z,1036.35
2016-08-14T00:50:42.655Z,1036.39
2016-08-14T00:51:42.503Z,1036.36
2016-08-14T00:52:42.501Z,1036.35
2016-08-14T00:53:42.499Z,1036.34
2016-08-14T00:54:43.197Z,1036.31
2016-08-14T00:55:42.645Z,1036.36
2016-08-14T00:56:42.792Z,1036.34
2016-08-14T00:57:42.493Z,1036.32
2016-08-14T00:58:42.591Z,1036.36
2016-08-14T00:59:42.488Z,1036.36
2016-08-14T01:00:42.484Z,1036.37
2016-08-14T01:01:42.486Z,1036.37
2016-08-14T01:02:42.481Z,1036.32
2016-08-14T01:03:42.478Z,1036.31
2016-08-14T01:04:42.477Z,1036.28
2016-08-14T01:05:42.478Z,1036.22
2016-08-14T01:06:42.474Z,1036.24
2016-08-14T01:07:42.473Z,1036.24
2016-08-14T01:08:42.472Z,1036.24
2016-08-14T01:09:42.467Z,1036.21
2016-08-14T01:10:42.465Z,1036.18
2016-08-14T01:11:42.467Z,1036.15
2016-08-14T01:12:42.469Z,1036.11
2016-08-14T01:13:42.561Z,1036.18
2016-08-14T01:14:42.458Z,1036.19
2016-08-14T01:15:42.455Z,1036.2
2016-08-14T01:16:42.457Z,1036.22
2016-08-14T01:17:42.455Z,1036.23
2016-08-14T01:18:42.450Z,1036.22
2016-08-14T01:19:42.450Z,1036.24
2016-08-14T01:20:42.447Z,1036.3
2016-08-14T01:21:42.444Z,1036.28
2016-08-14T01:22:42.443Z,1036.27
2016-08-14T01:23:42.446Z,1036.25
2016-08-14T01:25:42.757Z,1036.18
2016-08-14T01:26:43.127Z,1036.14
2016-08-14T01:27:42.435Z,1036.16
2016-08-14T01:28:42.435Z,1036.19
2016-08-14T01:29:42.436Z,1036.19
2016-08-14T01:30:42.432Z,1036.2
2016-08-14T01:31:42.427Z,1036.2
2016-08-14T01:32:42.428Z,1036.21
2016-08-14T01:33:42.430Z,1036.21
2016-08-14T01:34:42.422Z,1036.26
2016-08-14T01:35:42.423Z,1036.24
2016-08-14T01:36:42.418Z,1036.25
2016-08-14T01:37:42.419Z,1036.24
2016-08-14T01:38:42.417Z,1036.25
2016-08-14T01:39:42.412Z,1036.24
2016-08-14T01:40:42.415Z,1036.29
2016-08-14T01:41:42.412Z,1036.28
2016-08-14T01:42:42.407Z,1036.31
2016-08-14T01:43:42.405Z,1036.36
2016-08-14T01:44:42.407Z,1036.31
2016-08-14T01:45:42.402Z,1036.35
2016-08-14T01:46:42.403Z,1036.38
2016-08-14T01:47:42.399Z,1036.37
2016-08-14T01:48:42.396Z,1036.39
2016-08-14T01:49:42.403Z,1036.39
2016-08-14T01:50:42.391Z,1036.4
2016-08-14T01:51:42.393Z,1036.42
2016-08-14T01:52:42.388Z,1036.41
2016-08-14T01:53:42.386Z,1036.42
2016-08-14T01:54:42.384Z,1036.39
2016-08-14T01:55:42.384Z,1036.34
2016-08-14T01:56:42.383Z,1036.26
2016-08-14T01:57:42.379Z,1036.25
2016-08-14T01:58:42.380Z,1036.29
2016-08-14T01:59:42.376Z,1036.28
2016-08-14T02:00:42.376Z,1036.27
2016-08-14T02:01:42.371Z,1036.24
2016-08-14T02:02:42.621Z,1036.3
2016-08-14T02:03:42.368Z,1036.34
2016-08-14T02:04:43.217Z,1036.36
2016-08-14T02:05:42.363Z,1036.4
2016-08-14T02:06:42.363Z,1036.41
2016-08-14T02:07:42.361Z,1036.43
2016-08-14T02:08:42.371Z,1036.42
2016-08-14T02:09:42.608Z,1036.43
2016-08-14T02:10:42.354Z,1036.47
2016-08-14T02:11:42.353Z,1036.46
2016-08-14T02:12:43.652Z,1036.43
2016-08-14T02:13:42.747Z,1036.44
2016-08-14T02:14:43.548Z,1036.46
2016-08-14T02:15:42.345Z,1036.46
2016-08-14T02:16:42.343Z,1036.45
2016-08-14T02:17:42.338Z,1036.42
2016-08-14T02:18:42.339Z,1036.45
2016-08-14T02:19:42.336Z,1036.44
2016-08-14T02:20:42.333Z,1036.48
2016-08-14T02:21:42.331Z,1036.5
2016-08-14T02:22:42.330Z,1036.48
2016-08-14T02:23:42.334Z,1036.53
2016-08-14T02:24:42.324Z,1036.54
2016-08-14T02:25:42.322Z,1036.57
2016-08-14T02:26:42.321Z,1036.55
2016-08-14T02:27:42.317Z,1036.6
2016-08-14T02:28:42.317Z,1036.56
2016-08-14T02:29:42.316Z,1036.59
2016-08-14T02:30:42.311Z,1036.59
2016-08-14T02:31:42.310Z,1036.6
2016-08-14T02:32:42.308Z,1036.6
2016-08-14T02:33:42.305Z,1036.59
2016-08-14T02:34:42.302Z,1036.56
2016-08-14T02:35:42.302Z,1036.54
2016-08-14T02:36:42.300Z,1036.54
2016-08-14T02:37:42.296Z,1036.52
2016-08-14T02:38:42.296Z,1036.53
2016-08-14T02:39:42.291Z,1036.49
2016-08-14T02:40:42.289Z,1036.51
2016-08-14T02:41:42.286Z,1036.52
2016-08-14T02:42:43.369Z,1036.48
2016-08-14T02:43:42.486Z,1036.46
2016-08-14T02:44:43.441Z,1036.49
2016-08-14T02:45:42.278Z,1036.52
2016-08-14T02:46:42.277Z,1036.48
2016-08-14T02:47:42.272Z,1036.48
2016-08-14T02:48:42.269Z,1036.45
2016-08-14T02:49:42.269Z,1036.45
2016-08-14T02:50:42.265Z,1036.45
2016-08-14T02:51:42.262Z,1036.43
2016-08-14T02:52:42.260Z,1036.41
2016-08-14T02:53:42.258Z,1036.43
2016-08-14T02:54:42.256Z,1036.44
2016-08-14T02:55:42.254Z,1036.43
2016-08-14T02:56:42.251Z,1036.45
2016-08-14T02:57:42.249Z,1036.48
2016-08-14T02:58:42.249Z,1036.44
2016-08-14T02:59:42.244Z,1036.48
2016-08-14T03:00:42.253Z,1036.49
2016-08-14T03:01:42.239Z,1036.49
2016-08-14T03:02:42.244Z,1036.5
2016-08-14T03:03:42.234Z,1036.48
2016-08-14T03:04:42.237Z,1036.51
2016-08-14T03:05:42.230Z,1036.47
2016-08-14T03:06:42.229Z,1036.48
2016-08-14T03:07:42.224Z,1036.48
2016-08-14T03:08:42.222Z,1036.48
2016-08-14T03:09:42.222Z,1036.46
2016-08-14T03:10:42.220Z,1036.49
2016-08-14T03:11:42.217Z,1036.41
2016-08-14T03:12:42.215Z,1036.37
2016-08-14T03:13:42.311Z,1036.4
2016-08-14T03:14:42.210Z,1036.4
2016-08-14T03:15:42.209Z,1036.41
2016-08-14T03:16:42.204Z,1036.4
2016-08-14T03:17:42.205Z,1036.39
2016-08-14T03:18:42.202Z,1036.39
2016-08-14T03:19:42.197Z,1036.45
2016-08-14T03:20:42.194Z,1036.42
2016-08-14T03:21:42.744Z,1036.44
2016-08-14T03:22:42.292Z,1036.46
2016-08-14T03:23:42.188Z,1036.44
2016-08-14T03:24:42.185Z,1036.48
2016-08-14T03:25:42.184Z,1036.51
2016-08-14T03:26:42.583Z,1036.5
2016-08-14T03:27:42.181Z,1036.52
2016-08-14T03:28:42.177Z,1036.5
2016-08-14T03:29:42.174Z,1036.54
2016-08-14T03:30:42.625Z,1036.5
2016-08-14T03:31:42.320Z,1036.48
2016-08-14T03:32:42.170Z,1036.48
2016-08-14T03:33:42.166Z,1036.5
2016-08-14T03:34:42.166Z,1036.52
2016-08-14T03:35:42.162Z,1036.53
2016-08-14T03:36:42.159Z,1036.5
2016-08-14T03:37:42.156Z,1036.48
2016-08-14T03:38:42.157Z,1036.49
2016-08-14T03:39:42.152Z,1036.47
2016-08-14T03:40:42.152Z,1036.45
2016-08-14T03:41:42.150Z,1036.47
2016-08-14T03:42:42.147Z,1036.46
2016-08-14T03:43:42.146Z,1036.45
2016-08-14T03:44:42.143Z,1036.51
2016-08-14T03:45:42.138Z,1036.52
2016-08-14T03:46:42.137Z,1036.5
2016-08-14T03:47:42.135Z,1036.5
2016-08-14T03:48:42.131Z,1036.48
2016-08-14T03:49:42.129Z,1036.54
2016-08-14T03:50:42.131Z,1036.53
2016-08-14T03:51:42.125Z,1036.51
2016-08-14T03:52:42.126Z,1036.55
2016-08-14T03:53:42.123Z,1036.53
2016-08-14T03:54:42.118Z,1036.53
2016-08-14T03:55:42.117Z,1036.54
2016-08-14T03:56:42.114Z,1036.54
2016-08-14T03:57:42.114Z,1036.53
2016-08-14T03:58:42.111Z,1036.5
2016-08-14T03:59:42.109Z,1036.48
2016-08-14T04:00:42.108Z,1036.5
2016-08-14T04:01:42.106Z,1036.48
2016-08-14T04:02:43.323Z,1036.48
2016-08-14T04:03:42.101Z,1036.42
2016-08-14T04:04:42.096Z,1036.44
2016-08-14T04:05:42.096Z,1036.43
2016-08-14T04:06:42.091Z,1036.45
2016-08-14T04:07:42.089Z,1036.46
2016-08-14T04:08:42.087Z,1036.47
2016-08-14T04:09:42.086Z,1036.44
2016-08-14T04:10:42.082Z,1036.42
2016-08-14T04:11:42.080Z,1036.46
2016-08-14T04:12:42.079Z,1036.47
2016-08-14T04:13:42.075Z,1036.45
2016-08-14T04:14:42.073Z,1036.39
2016-08-14T04:15:42.073Z,1036.4
2016-08-14T04:16:42.191Z,1036.38
2016-08-14T04:17:42.066Z,1036.34
2016-08-14T04:18:42.068Z,1036.38
2016-08-14T04:19:42.065Z,1036.39
2016-08-14T04:20:42.064Z,1036.41
2016-08-14T04:21:42.059Z,1036.38
2016-08-14T04:22:42.059Z,1036.41
2016-08-14T04:23:42.066Z,1036.39
2016-08-14T04:24:42.054Z,1036.4
2016-08-14T04:25:42.052Z,1036.41
2016-08-14T04:26:42.049Z,1036.38
2016-08-14T04:27:42.048Z,1036.4
2016-08-14T04:28:42.043Z,1036.37
2016-08-14T04:29:42.043Z,1036.37
2016-08-14T04:30:42.040Z,1036.31
2016-08-14T04:31:42.038Z,1036.3
2016-08-14T04:32:42.035Z,1036.29
2016-08-14T04:33:42.034Z,1036.3
2016-08-14T04:34:42.034Z,1036.23
2016-08-14T04:35:42.030Z,1036.26
2016-08-14T04:36:42.030Z,1036.17
2016-08-14T04:37:42.028Z,1036.2
2016-08-14T04:38:42.023Z,1036.15
2016-08-14T04:41:42.018Z,1036.12
2016-08-14T04:43:42.016Z,1036.11
2016-08-14T04:44:42.012Z,1036.1
2016-08-14T04:45:42.011Z,1036.08
2016-08-14T04:46:42.010Z,1036.13
2016-08-14T04:47:42.008Z,1036.09
2016-08-14T04:48:42.006Z,1036.09
2016-08-14T04:49:42.003Z,1036.05
2016-08-14T04:50:42.003Z,1036.05
2016-08-14T04:51:42.801Z,1036.05
2016-08-14T04:52:41.998Z,1036
2016-08-14T04:53:41.997Z,1036.01
2016-08-14T04:54:41.997Z,1035.95
2016-08-14T04:55:41.992Z,1035.95
2016-08-14T04:56:41.991Z,1035.93
2016-08-14T04:57:41.991Z,1035.91
2016-08-14T04:58:41.988Z,1035.89
2016-08-14T04:59:41.985Z,1035.85
2016-08-14T05:00:41.986Z,1035.87
2016-08-14T05:01:41.983Z,1035.82
2016-08-14T05:02:41.981Z,1035.82
2016-08-14T05:03:41.979Z,1035.83
2016-08-14T05:04:41.978Z,1035.8
2016-08-14T05:05:41.979Z,1035.8
2016-08-14T05:06:41.987Z,1035.8
2016-08-14T05:07:41.973Z,1035.78
2016-08-14T05:08:41.972Z,1035.75
2016-08-14T05:09:41.977Z,1035.76
2016-08-14T05:10:41.972Z,1035.71
2016-08-14T05:11:41.968Z,1035.7
2016-08-14T05:12:41.968Z,1035.67
2016-08-14T05:13:41.968Z,1035.59
2016-08-14T05:14:41.965Z,1035.54
2016-08-14T05:15:41.965Z,1035.52
2016-08-14T05:16:41.964Z,1035.46
2016-08-14T05:17:41.962Z,1035.41
2016-08-14T05:18:41.963Z,1035.37
2016-08-14T05:19:41.961Z,1035.32
2016-08-14T05:20:41.959Z,1035.3
2016-08-14T05:21:42.239Z,1035.28
2016-08-14T05:22:42.769Z,1035.21
2016-08-14T05:23:41.958Z,1035.19
2016-08-14T05:24:41.958Z,1035.17
2016-08-14T05:25:41.954Z,1035.08
2016-08-14T05:26:41.957Z,1035.1
2016-08-14T05:27:43.948Z,1035.12
2016-08-14T05:28:41.954Z,1035.07
2016-08-14T05:29:42.035Z,1034.99
2016-08-14T05:30:41.953Z,1034.95
2016-08-14T05:31:42.098Z,1034.96
2016-08-14T05:32:41.950Z,1034.91
2016-08-14T05:33:41.950Z,1034.91
2016-08-14T05:34:41.952Z,1034.89
2016-08-14T05:35:41.952Z,1034.8
2016-08-14T05:36:41.949Z,1034.76
2016-08-14T05:37:41.951Z,1034.77
2016-08-14T05:38:41.952Z,1034.75
2016-08-14T05:39:41.951Z,1034.76
2016-08-14T05:40:41.951Z,1034.72
2016-08-14T05:41:41.955Z,1034.73
2016-08-14T05:42:41.952Z,1034.68
2016-08-14T05:43:41.952Z,1034.7
2016-08-14T05:44:41.951Z,1034.57
2016-08-14T05:45:41.949Z,1034.51
2016-08-14T05:46:41.949Z,1034.46
2016-08-14T05:47:41.950Z,1034.32
2016-08-14T05:48:41.950Z,1033.85
2016-08-14T05:49:41.955Z,1033.8
2016-08-14T05:50:41.952Z,1033.84
2016-08-14T05:51:41.952Z,1033.9
2016-08-14T05:52:41.953Z,1033.93
2016-08-14T05:53:41.956Z,1033.97
2016-08-14T05:54:41.958Z,1034.07
2016-08-14T05:55:41.958Z,1034.15
2016-08-14T05:56:41.959Z,1033.98
2016-08-14T05:57:41.959Z,1033.69
2016-08-14T05:58:42.061Z,1033.44
2016-08-14T05:59:41.963Z,1033.22
2016-08-14T06:00:41.964Z,1033.05
2016-08-14T06:01:41.968Z,1032.58
2016-08-14T06:02:41.966Z,1032.58
2016-08-14T06:03:41.971Z,1032.6
2016-08-14T06:04:41.974Z,1032.54
2016-08-14T06:05:41.977Z,1032.63
2016-08-14T06:06:41.978Z,1032.67
2016-08-14T06:07:41.984Z,1032.5
2016-08-14T06:08:41.984Z,1032.45
2016-08-14T06:09:41.987Z,1032.34
2016-08-14T06:10:41.989Z,1032.32
2016-08-14T06:11:41.995Z,1032.2
2016-08-14T06:12:41.999Z,1032.19
2016-08-14T06:13:42.000Z,1031.94
2016-08-14T06:14:42.004Z,1031.39
2016-08-14T06:15:42.010Z,1030.99
2016-08-14T06:16:42.016Z,1030.4
2016-08-14T06:17:42.021Z,1030.75
2016-08-14T06:18:42.025Z,1030.92
2016-08-14T06:19:42.030Z,1030.44
2016-08-14T06:20:42.036Z,1030.07
2016-08-14T06:21:42.044Z,1030.6
2016-08-14T06:22:42.050Z,1030.61
2016-08-14T06:23:42.055Z,1031.01
2016-08-14T06:24:42.061Z,1031.07
2016-08-14T06:25:42.069Z,1031.27
2016-08-14T06:26:42.079Z,1031.53
2016-08-14T06:27:42.082Z,1031.92
2016-08-14T06:28:42.089Z,1032.25
2016-08-14T06:29:42.097Z,1032.36
2016-08-14T06:30:42.104Z,1032.39
2016-08-14T06:31:42.108Z,1032.47
2016-08-14T06:32:42.124Z,1032.65
2016-08-14T06:33:42.123Z,1032.85
2016-08-14T06:34:42.128Z,1033.36
2016-08-14T06:35:42.137Z,1032.73
2016-08-14T06:36:42.141Z,1033.54
2016-08-14T06:37:42.150Z,1032.57
2016-08-14T06:38:43.111Z,1032.93
2016-08-14T06:39:42.442Z,1032.01
2016-08-14T06:40:42.168Z,1031.26
2016-08-14T06:41:42.176Z,1030.86
2016-08-14T06:42:42.183Z,1030.49
2016-08-14T06:43:42.218Z,1029.69
2016-08-14T06:44:42.198Z,1029.41
2016-08-14T06:45:42.205Z,1029.85
2016-08-14T06:46:43.533Z,1030.5
2016-08-14T06:47:42.220Z,1030.05
2016-08-14T06:48:42.229Z,1030.86
2016-08-14T06:49:42.841Z,1030.31
2016-08-14T06:50:42.250Z,1031.08
2016-08-14T06:51:42.250Z,1030.87
2016-08-14T06:52:42.261Z,1030.24
2016-08-14T06:53:42.268Z,1030.59
2016-08-14T06:54:42.276Z,1031
2016-08-14T06:55:42.287Z,1029.23
2016-08-14T06:56:42.296Z,1029.98
2016-08-14T06:57:42.301Z,1030.62
2016-08-14T06:58:42.310Z,1030.61
2016-08-14T06:59:42.320Z,1031.2
2016-08-14T07:00:42.331Z,1030.05
2016-08-14T07:01:42.339Z,1029.51
2016-08-14T07:02:42.348Z,1029.11
2016-08-14T07:03:42.356Z,1029.73
2016-08-14T07:04:42.367Z,1030.32
2016-08-14T07:05:42.374Z,1029.52
2016-08-14T07:06:42.386Z,1029.25
2016-08-14T07:07:42.393Z,1028.82
2016-08-14T07:08:42.403Z,1028.11
2016-08-14T07:09:42.413Z,1028.9
2016-08-14T07:10:42.429Z,1028.45
2016-08-14T07:11:42.435Z,1028.23
2016-08-14T07:12:42.446Z,1027.41
2016-08-14T07:13:42.455Z,1028.47
2016-08-14T07:14:42.467Z,1029.05
2016-08-14T07:15:42.477Z,1029.73
2016-08-14T07:16:42.488Z,1030.2
2016-08-14T07:17:42.502Z,1030.71
2016-08-14T07:18:42.512Z,1030.78
2016-08-14T07:19:42.523Z,1031.55
2016-08-14T07:20:42.533Z,1030.76
2016-08-14T07:21:42.545Z,1030.24
2016-08-14T07:22:42.555Z,1029.85
2016-08-14T07:23:42.563Z,1029.71
2016-08-14T07:25:42.587Z,1029.6
2016-08-14T07:26:42.597Z,1029.5
2016-08-14T07:27:42.611Z,1029.37
2016-08-14T07:28:42.620Z,1029.48
2016-08-14T07:29:42.631Z,1029.22
2016-08-14T07:30:42.643Z,1028.86
2016-08-14T07:31:42.652Z,1028.38
2016-08-14T07:32:42.665Z,1029.62
2016-08-14T07:33:42.679Z,1029.24
2016-08-14T07:34:42.691Z,1029.15
2016-08-14T07:35:42.700Z,1029.84
2016-08-14T07:36:42.715Z,1029.48
2016-08-14T07:37:42.726Z,1029.15
2016-08-14T07:38:42.735Z,1029.08
2016-08-14T07:39:42.750Z,1029.09
2016-08-14T07:40:42.761Z,1028.21
2016-08-14T07:41:42.773Z,1029.04
2016-08-14T07:42:42.784Z,1028.7
2016-08-14T07:43:42.797Z,1028.76
2016-08-14T07:44:42.811Z,1028.88
2016-08-14T07:45:42.824Z,1029.56
2016-08-14T07:46:42.837Z,1029.15
2016-08-14T07:47:42.850Z,1029.25
2016-08-14T07:48:42.861Z,1029.1
2016-08-14T07:49:42.874Z,1028.93
2016-08-14T07:50:42.889Z,1029.09
2016-08-14T07:51:42.903Z,1028.72
2016-08-14T07:52:42.915Z,1028.61
2016-08-14T07:53:42.929Z,1028.32
2016-08-14T07:54:42.943Z,1028.04
2016-08-14T07:55:44.740Z,1027.53
2016-08-14T07:56:42.968Z,1028.46
2016-08-14T07:57:43.017Z,1028.78
2016-08-14T07:58:43.000Z,1028.18
2016-08-14T07:59:43.222Z,1028.32
2016-08-14T08:00:43.365Z,1028.11
2016-08-14T08:01:43.041Z,1028.28
2016-08-14T08:02:43.059Z,1027.55
2016-08-14T08:03:43.073Z,1028.27
2016-08-14T08:04:43.102Z,1029.46
2016-08-14T08:05:43.105Z,1028.69
2016-08-14T08:06:43.118Z,1027.22
2016-08-14T08:07:44.199Z,1027.51
2016-08-14T08:08:43.147Z,1028.68
2016-08-14T08:09:43.498Z,1028.01
2016-08-14T08:10:43.179Z,1028.53
2016-08-14T08:11:43.193Z,1027.84
2016-08-14T08:12:43.208Z,1029.08
2016-08-14T08:13:43.224Z,1030.09
2016-08-14T08:14:43.237Z,1030.31
2016-08-14T08:15:43.255Z,1030.24
2016-08-14T08:16:43.267Z,1030.73
2016-08-14T08:17:43.283Z,1031.41
2016-08-14T08:18:43.295Z,1031.94
2016-08-14T08:19:43.311Z,1032.45
2016-08-14T08:20:43.322Z,1032.78
2016-08-14T08:21:43.334Z,1033.07
2016-08-14T08:22:43.349Z,1033.23
2016-08-14T08:23:43.360Z,1032.54
2016-08-14T08:24:43.377Z,1032.52
2016-08-14T08:25:43.382Z,1032.95
2016-08-14T08:26:43.397Z,1033.06
2016-08-14T08:27:43.407Z,1033.51
2016-08-14T08:28:43.416Z,1033.5
2016-08-14T08:29:43.442Z,1033.12
2016-08-14T08:30:43.438Z,1033.44
2016-08-14T08:31:43.450Z,1033.6
2016-08-14T08:32:43.461Z,1032.84
2016-08-14T08:33:44.780Z,1033.1
2016-08-14T08:34:43.480Z,1033.34
2016-08-14T08:35:43.492Z,1032.47
2016-08-14T08:36:43.502Z,1033.01
2016-08-14T08:37:43.512Z,1033.41
2016-08-14T08:38:43.520Z,1033.79
2016-08-14T08:39:43.530Z,1034.07
2016-08-14T08:40:43.540Z,1034.37
2016-08-14T08:41:43.551Z,1034.58
2016-08-14T08:42:44.062Z,1034.66
2016-08-14T08:43:43.568Z,1034.76
2016-08-14T08:44:43.575Z,1034.83
2016-08-14T08:45:43.587Z,1034.79
2016-08-14T08:46:43.597Z,1034.66
2016-08-14T08:47:43.603Z,1034.72
2016-08-14T08:48:43.610Z,1034.99
2016-08-14T08:49:43.620Z,1035.11
2016-08-14T08:50:43.628Z,1035.3
2016-08-14T08:51:43.637Z,1035.41
2016-08-14T08:52:43.645Z,1035.49
2016-08-14T08:53:43.651Z,1035.52
2016-08-14T08:54:43.658Z,1035.72
2016-08-14T08:55:43.666Z,1035.89
2016-08-14T08:56:43.675Z,1035.93
2016-08-14T08:57:43.680Z,1035.96
2016-08-14T08:58:43.687Z,1036.01
2016-08-14T08:59:43.694Z,1036.07
2016-08-14T09:00:43.701Z,1036.04
2016-08-14T09:01:43.709Z,1036.15
2016-08-14T09:02:43.715Z,1036.03
2016-08-14T09:03:43.722Z,1035.87
2016-08-14T09:04:43.726Z,1035.75
2016-08-14T09:05:43.731Z,1035.79
2016-08-14T09:06:43.738Z,1035.87
2016-08-14T09:07:43.745Z,1035.83
2016-08-14T09:08:43.753Z,1035.8
2016-08-14T09:09:43.756Z,1035.67
2016-08-14T09:10:43.762Z,1035.51
2016-08-14T09:11:43.768Z,1035.37
2016-08-14T09:12:43.774Z,1035.28
2016-08-14T09:13:44.363Z,1035.24
2016-08-14T09:14:43.786Z,1035.24
2016-08-14T09:15:43.917Z,1035.13
2016-08-14T09:16:43.797Z,1035.2
2016-08-14T09:17:43.807Z,1035.22
2016-08-14T09:18:43.811Z,1035.26
2016-08-14T09:19:43.816Z,1035.38
2016-08-14T09:20:43.822Z,1035.48
2016-08-14T09:21:45.397Z,1035.63
2016-08-14T09:22:43.834Z,1035.63
2016-08-14T09:23:43.840Z,1035.78
2016-08-14T09:24:43.847Z,1035.81
2016-08-14T09:25:43.854Z,1035.86
2016-08-14T09:26:43.860Z,1035.79
2016-08-14T09:27:43.862Z,1035.82
2016-08-14T09:28:44.214Z,1035.79
2016-08-14T09:29:43.879Z,1035.86
2016-08-14T09:30:43.880Z,1035.8
2016-08-14T09:31:43.885Z,1035.81
2016-08-14T09:32:43.895Z,1035.86
2016-08-14T09:33:43.899Z,1035.87
2016-08-14T09:34:43.902Z,1035.81
2016-08-14T09:35:43.909Z,1035.72
2016-08-14T09:36:43.914Z,1035.63
2016-08-14T09:37:43.921Z,1035.58
2016-08-14T09:38:43.926Z,1035.45
2016-08-14T09:39:43.931Z,1035.45
2016-08-14T09:40:43.936Z,1035.27
2016-08-14T09:41:43.942Z,1035.22
2016-08-14T09:42:43.947Z,1035.1
2016-08-14T09:43:43.954Z,1035.1
2016-08-14T09:44:43.961Z,1035.03
2016-08-14T09:45:43.967Z,1035
2016-08-14T09:46:43.971Z,1034.93
2016-08-14T09:47:43.976Z,1034.93
2016-08-14T09:48:43.983Z,1035.02
2016-08-14T09:49:43.987Z,1035
2016-08-14T09:50:43.998Z,1034.99
2016-08-14T09:52:44.008Z,1034.71
2016-08-14T09:53:44.013Z,1034.67
2016-08-14T09:54:44.019Z,1034.5
2016-08-14T09:55:44.728Z,1034.45
2016-08-14T09:56:44.034Z,1034.48
2016-08-14T09:57:44.038Z,1034.65
2016-08-14T09:58:44.045Z,1034.75
2016-08-14T09:59:44.051Z,1034.86
2016-08-14T10:00:44.057Z,1035.01
2016-08-14T10:01:44.062Z,1035.12
2016-08-14T10:02:44.071Z,1035.18
2016-08-14T10:03:44.076Z,1035.16
2016-08-14T10:05:44.742Z,1035.07
2016-08-14T10:06:44.094Z,1034.99
2016-08-14T10:07:44.201Z,1034.91
2016-08-14T10:08:44.105Z,1034.86
2016-08-14T10:09:44.113Z,1034.76
2016-08-14T10:10:44.123Z,1034.75
2016-08-14T10:11:44.167Z,1034.67
2016-08-14T10:12:44.131Z,1034.54
2016-08-14T10:13:44.139Z,1034.43
2016-08-14T10:14:44.146Z,1034.4
2016-08-14T10:15:44.152Z,1034.42
2016-08-14T10:16:44.157Z,1034.38
2016-08-14T10:17:44.163Z,1034.36
2016-08-14T10:18:44.172Z,1034.37
2016-08-14T10:19:44.179Z,1034.31
2016-08-14T10:20:44.183Z,1034.29
2016-08-14T10:21:44.189Z,1034.33
2016-08-14T10:22:44.195Z,1034.42
2016-08-14T10:23:44.207Z,1034.44
2016-08-14T10:24:44.217Z,1034.36
2016-08-14T10:25:44.216Z,1034.19
2016-08-14T10:26:44.225Z,1034.04
2016-08-14T10:27:44.229Z,1034.06
2016-08-14T10:28:44.238Z,1034.07
2016-08-14T10:29:44.245Z,1033.98
2016-08-14T10:30:44.251Z,1034.01
2016-08-14T10:31:44.257Z,1033.94
2016-08-14T10:32:44.265Z,1033.96
2016-08-14T10:33:44.975Z,1033.97
2016-08-14T10:34:44.283Z,1033.93
2016-08-14T10:35:44.287Z,1033.88
2016-08-14T10:36:44.295Z,1033.83
2016-08-14T10:37:44.303Z,1033.87
2016-08-14T10:38:44.310Z,1033.87
2016-08-14T10:39:44.318Z,1033.86
2016-08-14T10:40:44.322Z,1033.86
2016-08-14T10:41:44.332Z,1033.91
2016-08-14T10:42:44.340Z,1033.82
2016-08-14T10:43:44.345Z,1033.75
2016-08-14T10:44:44.353Z,1033.66
2016-08-14T10:45:44.362Z,1033.59
2016-08-14T10:46:44.369Z,1033.57
2016-08-14T10:47:44.374Z,1033.54
2016-08-14T10:48:44.382Z,1033.56
2016-08-14T10:49:44.391Z,1033.54
2016-08-14T10:50:44.397Z,1033.51
2016-08-14T10:51:44.403Z,1033.45
2016-08-14T10:52:44.413Z,1033.39
2016-08-14T10:53:44.419Z,1033.37
2016-08-14T10:54:44.427Z,1033.44
2016-08-14T10:55:44.435Z,1033.46
2016-08-14T10:56:44.442Z,1033.49
2016-08-14T10:57:44.450Z,1033.49
2016-08-14T10:58:44.459Z,1033.5
2016-08-14T10:59:44.465Z,1033.52
2016-08-14T11:00:44.476Z,1033.49
2016-08-14T11:01:44.483Z,1033.46
2016-08-14T11:02:44.490Z,1033.46
2016-08-14T11:03:44.497Z,1033.49
2016-08-14T11:04:44.506Z,1033.56
2016-08-14T11:05:44.514Z,1033.6
2016-08-14T11:06:44.521Z,1033.56
2016-08-14T11:07:44.531Z,1033.59
2016-08-14T11:08:44.537Z,1033.63
2016-08-14T11:09:44.542Z,1033.57
2016-08-14T11:10:44.554Z,1033.55
2016-08-14T11:11:44.558Z,1033.53
2016-08-14T11:12:44.566Z,1033.5
2016-08-14T11:13:44.575Z,1033.53
2016-08-14T11:14:44.581Z,1033.55
2016-08-14T11:15:44.592Z,1033.54
2016-08-14T11:16:44.597Z,1033.5
2016-08-14T11:17:44.604Z,1033.54
2016-08-14T11:18:44.614Z,1033.58
2016-08-14T11:19:44.921Z,1033.65
2016-08-14T11:20:44.629Z,1033.7
2016-08-14T11:21:44.636Z,1033.71
2016-08-14T11:22:44.645Z,1033.72
2016-08-14T11:23:44.653Z,1033.74
2016-08-14T11:24:44.658Z,1033.74
2016-08-14T11:25:44.667Z,1033.78
2016-08-14T11:26:44.674Z,1033.77
2016-08-14T11:27:44.686Z,1033.78
2016-08-14T11:28:44.691Z,1033.75
2016-08-14T11:29:44.698Z,1033.78
2016-08-14T11:30:44.708Z,1033.82
2016-08-14T11:31:44.713Z,1033.84
2016-08-14T11:32:44.722Z,1033.74
2016-08-14T11:33:44.728Z,1033.67
2016-08-14T11:34:44.736Z,1033.59
2016-08-14T11:35:44.741Z,1033.5
2016-08-14T11:36:44.750Z,1033.52
2016-08-14T11:37:44.758Z,1033.48
2016-08-14T11:38:44.769Z,1033.45
2016-08-14T11:39:44.770Z,1033.51
2016-08-14T11:40:44.778Z,1033.57
2016-08-14T11:41:44.790Z,1033.71
2016-08-14T11:42:44.796Z,1033.63
2016-08-14T11:43:44.803Z,1033.6
2016-08-14T11:44:44.808Z,1033.58
2016-08-14T11:45:44.819Z,1033.58
2016-08-14T11:46:44.824Z,1033.51
2016-08-14T11:47:44.833Z,1033.49
2016-08-14T11:48:44.840Z,1033.53
2016-08-14T11:49:44.845Z,1033.56
2016-08-14T11:50:44.860Z,1033.58
2016-08-14T11:51:45.358Z,1033.54
2016-08-14T11:52:44.869Z,1033.56
2016-08-14T11:53:44.876Z,1033.65
2016-08-14T11:54:44.885Z,1033.74
2016-08-14T11:55:44.890Z,1033.86
2016-08-14T11:56:45.110Z,1033.97
2016-08-14T11:57:44.910Z,1033.98
2016-08-14T11:59:44.923Z,1034.07
2016-08-14T12:00:44.926Z,1034.09
2016-08-14T12:01:44.936Z,1034.05
2016-08-14T12:02:44.940Z,1033.99
2016-08-14T12:03:44.951Z,1033.99
2016-08-14T12:04:45.375Z,1034.08
2016-08-14T12:05:44.965Z,1034.08
2016-08-14T12:06:44.972Z,1034.1
2016-08-14T12:07:44.977Z,1034.1
2016-08-14T12:08:44.984Z,1034.13
2016-08-14T12:09:44.991Z,1034.11
2016-08-14T12:10:45.000Z,1034.12
2016-08-14T12:11:45.006Z,1034.09
2016-08-14T12:12:45.012Z,1034.08
2016-08-14T12:13:45.019Z,1034.04
2016-08-14T12:14:45.077Z,1034.02
2016-08-14T12:15:45.031Z,1034.09
2016-08-14T12:16:45.041Z,1034.14
2016-08-14T12:17:45.301Z,1034.18
2016-08-14T12:18:45.052Z,1034.26
2016-08-14T12:19:45.059Z,1034.28